スィクティフカル の空港の天気 - METARとTAF

Syktyvkar ( UUYY / SCW ) - ロシア スィクティフカル
飛行場実況気象(Metar)
観測時間04/21 19:30 MSK (04/21 16:30 UTC)
風向・風速西 2m/s
視程10km以上
天気現象
なし
気温10℃
湿度40%
気圧1021hPa
METARUUYY 211630Z 26002MPS CAVOK 10/M03 Q1021 R18/61D NOSIG RMK QFE757/1010
過去の天気等 Google飛行場航空写真 Wunderground天気予報

過去48時間のMETAR

飛行場予報(TAF)
発表時間: 4/21 17:00 MSK (4/21 14:00 UTC)
予報対象時間: 21日18時 MSK ~ 22日18時 MSK
風向・風速西 3m/s 瞬間風速 8m/s
視程6000m
全天の8割程度の雲 雲底高度 340m
21日18時 MSK ~ 22日7時 MSK に一時的に
風向・風速西 3m/s
視程2100m
天気現象もや 煙
少しの雲 雲底高度 150m
22日7時 MSK ~ 22日9時 MSK に徐々に
風向・風速西 5m/s 瞬間風速 10m/s
視程10km以上
天気現象運行に影響にある天気現象が終了
22日9時 MSK ~ 22日15時 MSK に一時的に
風向・風速西 6m/s 瞬間風速 13m/s
全天の4割程度の積乱雲 雲底高度 610m
22日15時 MSK ~ 22日18時 MSK に一時的に
風向・風速西 6m/s 瞬間風速 13m/s
視程3100m
天気現象弱いしゅう雨
少しの雲 雲底高度 210m
全天の8割程度の積乱雲 雲底高度 460m
TAF UUYY 211400Z 2115/2215 26003G08MPS 6000 BKN011
TEMPO 2115/2204 28003MPS 2100 BR FU FEW005
BECMG 2204/2206 26005G10MPS 9999 NSW
TEMPO 2206/2212 28006G13MPS SCT020CB
TEMPO 2212/2215 28006G13MPS 3100 -SHRA FEW007 BKN015CB